sensor_id;sensor_type;location;lat;lon;timestamp;temperature;humidity
48860;DHT22;34679;51.436;-2.518;2023-01-24T00:01:00;-2.00;99.90
48860;DHT22;34679;51.436;-2.518;2023-01-24T00:03:26;-2.00;99.90
48860;DHT22;34679;51.436;-2.518;2023-01-24T00:05:51;-2.00;99.90
48860;DHT22;34679;51.436;-2.518;2023-01-24T00:08:19;-2.00;99.90
48860;DHT22;34679;51.436;-2.518;2023-01-24T00:10:46;-2.00;99.90
48860;DHT22;34679;51.436;-2.518;2023-01-24T00:13:12;-2.00;99.90
48860;DHT22;34679;51.436;-2.518;2023-01-24T00:15:38;-2.00;99.90
48860;DHT22;34679;51.436;-2.518;2023-01-24T00:18:04;-2.00;99.90
48860;DHT22;34679;51.436;-2.518;2023-01-24T00:20:30;-2.00;99.90
48860;DHT22;34679;51.436;-2.518;2023-01-24T00:22:56;-2.00;99.90
48860;DHT22;34679;51.436;-2.518;2023-01-24T00:25:22;-2.00;99.90
48860;DHT22;34679;51.436;-2.518;2023-01-24T00:27:48;-2.00;99.90
48860;DHT22;34679;51.436;-2.518;2023-01-24T00:30:14;-2.10;99.90
48860;DHT22;34679;51.436;-2.518;2023-01-24T00:32:40;-2.10;99.90
48860;DHT22;34679;51.436;-2.518;2023-01-24T00:35:06;-2.10;99.90
48860;DHT22;34679;51.436;-2.518;2023-01-24T00:37:32;-2.10;99.90
48860;DHT22;34679;51.436;-2.518;2023-01-24T00:39:58;-2.10;99.90
48860;DHT22;34679;51.436;-2.518;2023-01-24T00:42:24;-2.10;99.90
48860;DHT22;34679;51.436;-2.518;2023-01-24T00:44:49;-2.20;99.90
48860;DHT22;34679;51.436;-2.518;2023-01-24T00:47:15;-2.20;99.90
48860;DHT22;34679;51.436;-2.518;2023-01-24T00:49:41;-2.20;99.90
48860;DHT22;34679;51.436;-2.518;2023-01-24T00:52:07;-2.30;99.90
48860;DHT22;34679;51.436;-2.518;2023-01-24T00:54:33;-2.30;99.90
48860;DHT22;34679;51.436;-2.518;2023-01-24T00:56:59;-2.30;99.90
48860;DHT22;34679;51.436;-2.518;2023-01-24T00:59:24;-2.40;99.90
48860;DHT22;34679;51.436;-2.518;2023-01-24T01:01:50;-2.40;99.90
48860;DHT22;34679;51.436;-2.518;2023-01-24T01:04:16;-2.40;99.90
48860;DHT22;34679;51.436;-2.518;2023-01-24T01:06:45;-2.40;99.90
48860;DHT22;34679;51.436;-2.518;2023-01-24T01:09:11;-2.40;99.90
48860;DHT22;34679;51.436;-2.518;2023-01-24T01:11:37;-2.40;99.90
48860;DHT22;34679;51.436;-2.518;2023-01-24T01:14:08;-2.40;99.90
48860;DHT22;34679;51.436;-2.518;2023-01-24T01:16:34;-2.40;99.90
48860;DHT22;34679;51.436;-2.518;2023-01-24T01:19:03;-2.40;99.90
48860;DHT22;34679;51.436;-2.518;2023-01-24T01:21:29;-2.40;99.90
48860;DHT22;34679;51.436;-2.518;2023-01-24T01:23:55;-2.40;99.90
48860;DHT22;34679;51.436;-2.518;2023-01-24T01:26:21;-2.50;99.90
48860;DHT22;34679;51.436;-2.518;2023-01-24T01:28:47;-2.40;99.90
48860;DHT22;34679;51.436;-2.518;2023-01-24T01:31:14;-2.30;99.90
48860;DHT22;34679;51.436;-2.518;2023-01-24T01:33:39;-2.30;99.90
48860;DHT22;34679;51.436;-2.518;2023-01-24T01:36:05;-2.40;99.90
48860;DHT22;34679;51.436;-2.518;2023-01-24T01:38:32;-2.40;99.90
48860;DHT22;34679;51.436;-2.518;2023-01-24T01:40:57;-2.40;99.90
48860;DHT22;34679;51.436;-2.518;2023-01-24T01:43:28;-2.40;99.90
48860;DHT22;34679;51.436;-2.518;2023-01-24T01:48:48;-2.40;99.90
48860;DHT22;34679;51.436;-2.518;2023-01-24T01:51:22;-2.60;99.90
48860;DHT22;34679;51.436;-2.518;2023-01-24T01:54:04;-2.60;99.90
48860;DHT22;34679;51.436;-2.518;2023-01-24T01:59:03;-2.60;99.90
48860;DHT22;34679;51.436;-2.518;2023-01-24T02:01:29;-2.70;99.90
48860;DHT22;34679;51.436;-2.518;2023-01-24T02:04:03;-2.60;99.90
48860;DHT22;34679;51.436;-2.518;2023-01-24T02:06:49;-2.60;99.90
48860;DHT22;34679;51.436;-2.518;2023-01-24T02:09:23;-2.70;99.90
48860;DHT22;34679;51.436;-2.518;2023-01-24T02:11:51;-2.60;99.90
48860;DHT22;34679;51.436;-2.518;2023-01-24T02:14:20;-2.60;99.90
48860;DHT22;34679;51.436;-2.518;2023-01-24T02:17:06;-2.60;99.90
48860;DHT22;34679;51.436;-2.518;2023-01-24T02:22:15;-2.70;99.90
48860;DHT22;34679;51.436;-2.518;2023-01-24T02:24:59;-2.70;99.90
48860;DHT22;34679;51.436;-2.518;2023-01-24T02:27:26;-2.70;99.90
48860;DHT22;34679;51.436;-2.518;2023-01-24T02:29:54;-2.70;99.90
48860;DHT22;34679;51.436;-2.518;2023-01-24T02:32:21;-2.60;99.90
48860;DHT22;34679;51.436;-2.518;2023-01-24T02:34:46;-2.70;99.90
48860;DHT22;34679;51.436;-2.518;2023-01-24T02:37:13;-2.70;99.90
48860;DHT22;34679;51.436;-2.518;2023-01-24T02:40:06;-2.70;99.90
48860;DHT22;34679;51.436;-2.518;2023-01-24T02:42:38;-2.70;99.90
48860;DHT22;34679;51.436;-2.518;2023-01-24T02:45:10;-2.70;99.90
48860;DHT22;34679;51.436;-2.518;2023-01-24T02:47:40;-2.70;99.90
48860;DHT22;34679;51.436;-2.518;2023-01-24T02:50:07;-2.80;99.90
48860;DHT22;34679;51.436;-2.518;2023-01-24T02:52:34;-2.80;99.90
48860;DHT22;34679;51.436;-2.518;2023-01-24T02:55:18;-2.80;99.90
48860;DHT22;34679;51.436;-2.518;2023-01-24T02:57:43;-2.80;99.90
48860;DHT22;34679;51.436;-2.518;2023-01-24T03:00:27;-2.80;99.90
48860;DHT22;34679;51.436;-2.518;2023-01-24T03:02:53;-2.80;99.90
48860;DHT22;34679;51.436;-2.518;2023-01-24T03:05:19;-2.80;99.90
48860;DHT22;34679;51.436;-2.518;2023-01-24T03:07:45;-2.80;99.90
48860;DHT22;34679;51.436;-2.518;2023-01-24T03:10:12;-2.80;99.90
48860;DHT22;34679;51.436;-2.518;2023-01-24T03:12:38;-2.80;99.90
48860;DHT22;34679;51.436;-2.518;2023-01-24T03:15:23;-2.80;99.90
48860;DHT22;34679;51.436;-2.518;2023-01-24T03:18:08;-2.80;99.90
48860;DHT22;34679;51.436;-2.518;2023-01-24T03:20:52;-2.80;99.90
48860;DHT22;34679;51.436;-2.518;2023-01-24T03:23:36;-2.80;99.90
48860;DHT22;34679;51.436;-2.518;2023-01-24T03:26:20;-2.80;99.90
48860;DHT22;34679;51.436;-2.518;2023-01-24T03:29:05;-2.90;99.90
48860;DHT22;34679;51.436;-2.518;2023-01-24T03:31:49;-2.90;99.90
48860;DHT22;34679;51.436;-2.518;2023-01-24T03:34:33;-2.90;99.90
48860;DHT22;34679;51.436;-2.518;2023-01-24T03:37:05;-2.90;99.90
48860;DHT22;34679;51.436;-2.518;2023-01-24T03:39:30;-2.90;99.90
48860;DHT22;34679;51.436;-2.518;2023-01-24T03:42:14;-2.90;99.90
48860;DHT22;34679;51.436;-2.518;2023-01-24T03:44:40;-2.90;99.90
48860;DHT22;34679;51.436;-2.518;2023-01-24T03:47:06;-2.90;99.90
48860;DHT22;34679;51.436;-2.518;2023-01-24T03:49:31;-2.90;99.90
48860;DHT22;34679;51.436;-2.518;2023-01-24T03:52:16;-3.00;99.90
48860;DHT22;34679;51.436;-2.518;2023-01-24T03:54:55;-3.00;99.90
48860;DHT22;34679;51.436;-2.518;2023-01-24T03:57:21;-3.00;99.90
48860;DHT22;34679;51.436;-2.518;2023-01-24T03:59:47;-3.00;99.90
48860;DHT22;34679;51.436;-2.518;2023-01-24T04:02:14;-3.00;99.90
48860;DHT22;34679;51.436;-2.518;2023-01-24T04:04:39;-3.10;99.90
48860;DHT22;34679;51.436;-2.518;2023-01-24T04:07:24;-3.10;99.90
48860;DHT22;34679;51.436;-2.518;2023-01-24T04:09:49;-3.10;99.90
48860;DHT22;34679;51.436;-2.518;2023-01-24T04:12:16;-3.20;99.90
48860;DHT22;34679;51.436;-2.518;2023-01-24T04:14:42;-3.20;99.90
48860;DHT22;34679;51.436;-2.518;2023-01-24T04:17:08;-3.30;99.90
48860;DHT22;34679;51.436;-2.518;2023-01-24T04:19:34;-3.10;99.90
48860;DHT22;34679;51.436;-2.518;2023-01-24T04:22:00;-3.10;99.90
48860;DHT22;34679;51.436;-2.518;2023-01-24T04:24:26;-3.10;99.90
48860;DHT22;34679;51.436;-2.518;2023-01-24T04:26:52;-3.10;99.90
48860;DHT22;34679;51.436;-2.518;2023-01-24T04:29:18;-3.20;99.90
48860;DHT22;34679;51.436;-2.518;2023-01-24T04:31:43;-3.20;99.90
48860;DHT22;34679;51.436;-2.518;2023-01-24T04:34:09;-3.10;99.90
48860;DHT22;34679;51.436;-2.518;2023-01-24T04:36:35;-3.10;99.90
48860;DHT22;34679;51.436;-2.518;2023-01-24T04:39:01;-3.10;99.90
48860;DHT22;34679;51.436;-2.518;2023-01-24T04:41:26;-3.20;99.90
48860;DHT22;34679;51.436;-2.518;2023-01-24T04:43:52;-3.30;99.90
48860;DHT22;34679;51.436;-2.518;2023-01-24T04:46:18;-3.30;99.90
48860;DHT22;34679;51.436;-2.518;2023-01-24T04:48:43;-3.40;99.90
48860;DHT22;34679;51.436;-2.518;2023-01-24T04:51:09;-3.40;99.90
48860;DHT22;34679;51.436;-2.518;2023-01-24T04:53:38;-3.40;99.90
48860;DHT22;34679;51.436;-2.518;2023-01-24T04:56:05;-3.40;99.90
48860;DHT22;34679;51.436;-2.518;2023-01-24T04:58:32;-3.50;99.90
48860;DHT22;34679;51.436;-2.518;2023-01-24T05:00:58;-3.50;99.90
48860;DHT22;34679;51.436;-2.518;2023-01-24T05:03:24;-3.60;99.90
48860;DHT22;34679;51.436;-2.518;2023-01-24T05:05:50;-3.60;99.90
48860;DHT22;34679;51.436;-2.518;2023-01-24T05:08:16;-3.60;99.90
48860;DHT22;34679;51.436;-2.518;2023-01-24T05:10:42;-3.60;99.90
48860;DHT22;34679;51.436;-2.518;2023-01-24T05:13:08;-3.70;99.90
48860;DHT22;34679;51.436;-2.518;2023-01-24T05:15:33;-3.60;99.90
48860;DHT22;34679;51.436;-2.518;2023-01-24T05:17:59;-3.70;99.90
48860;DHT22;34679;51.436;-2.518;2023-01-24T05:20:25;-3.70;99.90
48860;DHT22;34679;51.436;-2.518;2023-01-24T05:22:51;-3.70;99.90
48860;DHT22;34679;51.436;-2.518;2023-01-24T05:25:17;-3.80;99.90
48860;DHT22;34679;51.436;-2.518;2023-01-24T05:27:43;-3.80;99.90
48860;DHT22;34679;51.436;-2.518;2023-01-24T05:30:09;-3.80;99.90
48860;DHT22;34679;51.436;-2.518;2023-01-24T05:32:35;-3.80;99.90
48860;DHT22;34679;51.436;-2.518;2023-01-24T05:35:01;-3.80;99.90
48860;DHT22;34679;51.436;-2.518;2023-01-24T05:37:26;-3.80;99.90
48860;DHT22;34679;51.436;-2.518;2023-01-24T05:39:52;-3.70;99.90
48860;DHT22;34679;51.436;-2.518;2023-01-24T05:42:18;-3.70;99.90
48860;DHT22;34679;51.436;-2.518;2023-01-24T05:44:43;-3.70;99.90
48860;DHT22;34679;51.436;-2.518;2023-01-24T05:47:09;-3.70;99.90
48860;DHT22;34679;51.436;-2.518;2023-01-24T05:49:35;-3.70;99.90
48860;DHT22;34679;51.436;-2.518;2023-01-24T05:52:00;-3.70;99.90
48860;DHT22;34679;51.436;-2.518;2023-01-24T05:54:26;-3.70;99.90
48860;DHT22;34679;51.436;-2.518;2023-01-24T05:56:52;-3.70;99.90
48860;DHT22;34679;51.436;-2.518;2023-01-24T05:59:18;-3.70;99.90
48860;DHT22;34679;51.436;-2.518;2023-01-24T06:01:44;-3.70;99.90
48860;DHT22;34679;51.436;-2.518;2023-01-24T06:04:09;-3.60;99.90
48860;DHT22;34679;51.436;-2.518;2023-01-24T06:06:35;-3.60;99.90
48860;DHT22;34679;51.436;-2.518;2023-01-24T06:09:01;-3.60;99.90
48860;DHT22;34679;51.436;-2.518;2023-01-24T06:11:27;-3.70;99.90
48860;DHT22;34679;51.436;-2.518;2023-01-24T06:13:55;-3.70;99.90
48860;DHT22;34679;51.436;-2.518;2023-01-24T06:16:23;-3.60;99.90
48860;DHT22;34679;51.436;-2.518;2023-01-24T06:18:50;-3.70;99.90
48860;DHT22;34679;51.436;-2.518;2023-01-24T06:24:00;-3.60;99.90
48860;DHT22;34679;51.436;-2.518;2023-01-24T06:26:27;-3.60;99.90
48860;DHT22;34679;51.436;-2.518;2023-01-24T06:28:53;-3.70;99.90
48860;DHT22;34679;51.436;-2.518;2023-01-24T06:34:29;-3.70;99.90
48860;DHT22;34679;51.436;-2.518;2023-01-24T06:37:41;-3.70;99.90
48860;DHT22;34679;51.436;-2.518;2023-01-24T06:40:11;-3.70;99.90
48860;DHT22;34679;51.436;-2.518;2023-01-24T06:42:37;-3.70;99.90
48860;DHT22;34679;51.436;-2.518;2023-01-24T06:45:05;-3.70;99.90
48860;DHT22;34679;51.436;-2.518;2023-01-24T06:47:31;-3.70;99.90
48860;DHT22;34679;51.436;-2.518;2023-01-24T06:49:56;-3.40;99.90
48860;DHT22;34679;51.436;-2.518;2023-01-24T06:52:22;-3.70;99.90
48860;DHT22;34679;51.436;-2.518;2023-01-24T06:54:48;-3.70;99.90
48860;DHT22;34679;51.436;-2.518;2023-01-24T06:57:14;-3.80;99.90
48860;DHT22;34679;51.436;-2.518;2023-01-24T06:59:40;-3.70;99.90
48860;DHT22;34679;51.436;-2.518;2023-01-24T07:02:06;-3.80;99.90
48860;DHT22;34679;51.436;-2.518;2023-01-24T07:04:32;-3.80;99.90
48860;DHT22;34679;51.436;-2.518;2023-01-24T07:06:57;-3.90;99.90
48860;DHT22;34679;51.436;-2.518;2023-01-24T07:09:23;-3.90;99.90
48860;DHT22;34679;51.436;-2.518;2023-01-24T07:11:50;-3.90;99.90
48860;DHT22;34679;51.436;-2.518;2023-01-24T07:14:19;-3.90;99.90
48860;DHT22;34679;51.436;-2.518;2023-01-24T07:16:45;-4.00;99.90
48860;DHT22;34679;51.436;-2.518;2023-01-24T07:19:16;-3.90;99.90
48860;DHT22;34679;51.436;-2.518;2023-01-24T07:21:42;-3.90;99.90
48860;DHT22;34679;51.436;-2.518;2023-01-24T07:24:17;-3.90;99.90
48860;DHT22;34679;51.436;-2.518;2023-01-24T07:26:44;-3.90;99.90
48860;DHT22;34679;51.436;-2.518;2023-01-24T07:29:10;-3.90;99.90
48860;DHT22;34679;51.436;-2.518;2023-01-24T07:31:37;-3.90;99.90
48860;DHT22;34679;51.436;-2.518;2023-01-24T07:34:02;-3.90;99.90
48860;DHT22;34679;51.436;-2.518;2023-01-24T07:36:28;-3.90;99.90
48860;DHT22;34679;51.436;-2.518;2023-01-24T07:38:55;-3.90;99.90
48860;DHT22;34679;51.436;-2.518;2023-01-24T07:41:21;-4.00;99.90
48860;DHT22;34679;51.436;-2.518;2023-01-24T07:43:47;-3.90;99.90
48860;DHT22;34679;51.436;-2.518;2023-01-24T07:46:12;-4.00;99.90
48860;DHT22;34679;51.436;-2.518;2023-01-24T07:48:38;-3.90;99.90
48860;DHT22;34679;51.436;-2.518;2023-01-24T07:51:04;-3.90;99.90
48860;DHT22;34679;51.436;-2.518;2023-01-24T07:53:30;-3.90;99.90
48860;DHT22;34679;51.436;-2.518;2023-01-24T07:55:59;-4.00;99.90
48860;DHT22;34679;51.436;-2.518;2023-01-24T07:58:25;-3.90;99.90
48860;DHT22;34679;51.436;-2.518;2023-01-24T08:00:50;-3.90;99.90
48860;DHT22;34679;51.436;-2.518;2023-01-24T08:03:16;-3.90;99.90
48860;DHT22;34679;51.436;-2.518;2023-01-24T08:05:43;-3.90;99.90
48860;DHT22;34679;51.436;-2.518;2023-01-24T08:08:08;-4.00;99.90
48860;DHT22;34679;51.436;-2.518;2023-01-24T08:10:34;-4.00;99.90
48860;DHT22;34679;51.436;-2.518;2023-01-24T08:13:00;-4.00;99.90
48860;DHT22;34679;51.436;-2.518;2023-01-24T08:15:26;-4.00;99.90
48860;DHT22;34679;51.436;-2.518;2023-01-24T08:17:52;-4.00;99.90
48860;DHT22;34679;51.436;-2.518;2023-01-24T08:20:17;-3.80;99.90
48860;DHT22;34679;51.436;-2.518;2023-01-24T08:22:43;-3.90;99.90
48860;DHT22;34679;51.436;-2.518;2023-01-24T08:25:09;-3.90;99.90
48860;DHT22;34679;51.436;-2.518;2023-01-24T08:27:38;-3.60;99.90
48860;DHT22;34679;51.436;-2.518;2023-01-24T08:30:05;-3.40;99.90
48860;DHT22;34679;51.436;-2.518;2023-01-24T08:32:31;-3.20;99.90
48860;DHT22;34679;51.436;-2.518;2023-01-24T08:34:57;-3.10;99.90
48860;DHT22;34679;51.436;-2.518;2023-01-24T08:37:23;-2.70;99.90
48860;DHT22;34679;51.436;-2.518;2023-01-24T08:39:49;-2.40;99.90
48860;DHT22;34679;51.436;-2.518;2023-01-24T08:42:14;-1.80;99.90
48860;DHT22;34679;51.436;-2.518;2023-01-24T08:44:40;-1.40;99.90
48860;DHT22;34679;51.436;-2.518;2023-01-24T08:47:06;-1.00;99.90
48860;DHT22;34679;51.436;-2.518;2023-01-24T08:49:32;-0.70;99.90
48860;DHT22;34679;51.436;-2.518;2023-01-24T08:51:57;-0.30;99.90
48860;DHT22;34679;51.436;-2.518;2023-01-24T08:54:29;0.20;99.90
48860;DHT22;34679;51.436;-2.518;2023-01-24T08:56:56;0.50;99.90
48860;DHT22;34679;51.436;-2.518;2023-01-24T08:59:22;1.00;99.90
48860;DHT22;34679;51.436;-2.518;2023-01-24T09:01:47;1.50;99.90
48860;DHT22;34679;51.436;-2.518;2023-01-24T09:04:13;2.10;99.90
48860;DHT22;34679;51.436;-2.518;2023-01-24T09:06:39;2.50;99.90
48860;DHT22;34679;51.436;-2.518;2023-01-24T09:09:05;2.60;99.90
48860;DHT22;34679;51.436;-2.518;2023-01-24T09:11:31;2.80;99.90
48860;DHT22;34679;51.436;-2.518;2023-01-24T09:13:57;2.90;99.90
48860;DHT22;34679;51.436;-2.518;2023-01-24T09:16:23;2.40;99.90
48860;DHT22;34679;51.436;-2.518;2023-01-24T09:18:49;2.20;99.90
48860;DHT22;34679;51.436;-2.518;2023-01-24T09:21:17;2.30;99.90
48860;DHT22;34679;51.436;-2.518;2023-01-24T09:23:43;2.40;99.90
48860;DHT22;34679;51.436;-2.518;2023-01-24T09:26:09;2.60;99.90
48860;DHT22;34679;51.436;-2.518;2023-01-24T09:28:35;2.80;99.90
48860;DHT22;34679;51.436;-2.518;2023-01-24T09:31:02;2.90;99.90
48860;DHT22;34679;51.436;-2.518;2023-01-24T09:33:28;3.30;99.90
48860;DHT22;34679;51.436;-2.518;2023-01-24T09:35:58;3.50;99.90
48860;DHT22;34679;51.436;-2.518;2023-01-24T09:38:26;3.80;99.90
48860;DHT22;34679;51.436;-2.518;2023-01-24T09:43:52;3.30;99.90
48860;DHT22;34679;51.436;-2.518;2023-01-24T09:46:38;3.60;99.90
48860;DHT22;34679;51.436;-2.518;2023-01-24T09:51:59;2.80;99.90
48860;DHT22;34679;51.436;-2.518;2023-01-24T09:54:47;2.30;99.90
48860;DHT22;34679;51.436;-2.518;2023-01-24T09:57:28;1.90;99.90
48860;DHT22;34679;51.436;-2.518;2023-01-24T10:00:00;1.60;99.90
48860;DHT22;34679;51.436;-2.518;2023-01-24T10:02:28;1.40;99.90
48860;DHT22;34679;51.436;-2.518;2023-01-24T10:04:54;1.20;99.90
48860;DHT22;34679;51.436;-2.518;2023-01-24T10:24:24;0.60;99.90
48860;DHT22;34679;51.436;-2.518;2023-01-24T10:26:52;0.50;99.90
48860;DHT22;34679;51.436;-2.518;2023-01-24T10:29:22;0.50;99.90
48860;DHT22;34679;51.436;-2.518;2023-01-24T10:34:46;0.60;99.90
48860;DHT22;34679;51.436;-2.518;2023-01-24T10:37:25;0.60;99.90
48860;DHT22;34679;51.436;-2.518;2023-01-24T10:39:54;0.70;99.90
48860;DHT22;34679;51.436;-2.518;2023-01-24T10:42:28;0.70;99.90
48860;DHT22;34679;51.436;-2.518;2023-01-24T10:44:57;0.80;99.90
48860;DHT22;34679;51.436;-2.518;2023-01-24T10:50:11;0.80;99.90
48860;DHT22;34679;51.436;-2.518;2023-01-24T10:52:37;1.00;99.90
48860;DHT22;34679;51.436;-2.518;2023-01-24T10:55:24;0.90;99.90
48860;DHT22;34679;51.436;-2.518;2023-01-24T10:57:54;1.00;99.90
48860;DHT22;34679;51.436;-2.518;2023-01-24T11:03:20;1.10;99.90
48860;DHT22;34679;51.436;-2.518;2023-01-24T11:05:52;1.20;99.90
48860;DHT22;34679;51.436;-2.518;2023-01-24T11:08:34;1.30;99.90
48860;DHT22;34679;51.436;-2.518;2023-01-24T11:11:00;1.40;99.90
48860;DHT22;34679;51.436;-2.518;2023-01-24T11:13:36;1.40;99.90
48860;DHT22;34679;51.436;-2.518;2023-01-24T11:18:54;1.60;99.90
48860;DHT22;34679;51.436;-2.518;2023-01-24T11:21:21;1.60;99.90
48860;DHT22;34679;51.436;-2.518;2023-01-24T11:26:32;1.70;99.90
48860;DHT22;34679;51.436;-2.518;2023-01-24T11:29:04;1.70;99.90
48860;DHT22;34679;51.436;-2.518;2023-01-24T11:31:53;1.70;99.90
48860;DHT22;34679;51.436;-2.518;2023-01-24T11:49:15;2.20;99.90
48860;DHT22;34679;51.436;-2.518;2023-01-24T11:51:49;2.30;99.90
48860;DHT22;34679;51.436;-2.518;2023-01-24T12:06:09;2.70;99.90
48860;DHT22;34679;51.436;-2.518;2023-01-24T12:11:25;2.80;99.90
48860;DHT22;34679;51.436;-2.518;2023-01-24T12:22:22;2.90;99.90
48860;DHT22;34679;51.436;-2.518;2023-01-24T12:27:41;3.00;99.90
48860;DHT22;34679;51.436;-2.518;2023-01-24T12:35:50;3.40;99.90
48860;DHT22;34679;51.436;-2.518;2023-01-24T12:38:29;3.40;99.90
48860;DHT22;34679;51.436;-2.518;2023-01-24T12:49:33;3.60;99.90
48860;DHT22;34679;51.436;-2.518;2023-01-24T12:54:49;3.80;99.90
48860;DHT22;34679;51.436;-2.518;2023-01-24T12:57:27;3.90;99.90
48860;DHT22;34679;51.436;-2.518;2023-01-24T12:59:53;4.00;99.90
48860;DHT22;34679;51.436;-2.518;2023-01-24T13:05:18;4.10;99.90
48860;DHT22;34679;51.436;-2.518;2023-01-24T13:13:40;4.20;99.90
48860;DHT22;34679;51.436;-2.518;2023-01-24T13:18:57;4.30;99.90
48860;DHT22;34679;51.436;-2.518;2023-01-24T13:22:04;4.20;99.90
48860;DHT22;34679;51.436;-2.518;2023-01-24T13:24:52;4.20;99.90
48860;DHT22;34679;51.436;-2.518;2023-01-24T13:27:45;4.20;99.90
48860;DHT22;34679;51.436;-2.518;2023-01-24T13:32:59;4.20;99.90
48860;DHT22;34679;51.436;-2.518;2023-01-24T13:35:27;4.20;99.90
48860;DHT22;34679;51.436;-2.518;2023-01-24T13:38:16;4.20;99.90
48860;DHT22;34679;51.436;-2.518;2023-01-24T13:41:04;4.20;99.90
48860;DHT22;34679;51.436;-2.518;2023-01-24T13:46:56;4.30;99.90
48860;DHT22;34679;51.436;-2.518;2023-01-24T13:51:57;4.30;99.90
48860;DHT22;34679;51.436;-2.518;2023-01-24T13:54:42;4.30;99.90
48860;DHT22;34679;51.436;-2.518;2023-01-24T13:57:17;4.40;99.90
48860;DHT22;34679;51.436;-2.518;2023-01-24T14:02:59;4.30;99.90
48860;DHT22;34679;51.436;-2.518;2023-01-24T14:10:51;4.40;99.90
48860;DHT22;34679;51.436;-2.518;2023-01-24T14:21:30;4.30;99.90
48860;DHT22;34679;51.436;-2.518;2023-01-24T14:24:00;4.40;99.90
48860;DHT22;34679;51.436;-2.518;2023-01-24T14:26:28;4.30;99.90
48860;DHT22;34679;51.436;-2.518;2023-01-24T14:29:03;4.30;99.90
48860;DHT22;34679;51.436;-2.518;2023-01-24T14:31:32;4.30;99.90
48860;DHT22;34679;51.436;-2.518;2023-01-24T14:36:34;4.30;99.90
48860;DHT22;34679;51.436;-2.518;2023-01-24T14:39:25;4.40;99.90
48860;DHT22;34679;51.436;-2.518;2023-01-24T14:41:58;4.40;99.90
48860;DHT22;34679;51.436;-2.518;2023-01-24T14:47:01;4.60;99.90
48860;DHT22;34679;51.436;-2.518;2023-01-24T14:51:56;4.60;99.90
48860;DHT22;34679;51.436;-2.518;2023-01-24T14:54:23;4.50;99.90
48860;DHT22;34679;51.436;-2.518;2023-01-24T14:56:50;4.50;99.90
48860;DHT22;34679;51.436;-2.518;2023-01-24T14:59:20;4.40;99.90
48860;DHT22;34679;51.436;-2.518;2023-01-24T15:01:50;4.40;99.90
48860;DHT22;34679;51.436;-2.518;2023-01-24T15:04:29;4.30;99.90
48860;DHT22;34679;51.436;-2.518;2023-01-24T15:07:12;4.30;99.90
48860;DHT22;34679;51.436;-2.518;2023-01-24T15:09:39;4.30;99.90
48860;DHT22;34679;51.436;-2.518;2023-01-24T15:12:25;4.30;99.90
48860;DHT22;34679;51.436;-2.518;2023-01-24T15:14:53;4.40;99.90
48860;DHT22;34679;51.436;-2.518;2023-01-24T15:17:28;4.30;99.90
48860;DHT22;34679;51.436;-2.518;2023-01-24T15:19:59;4.30;99.90
48860;DHT22;34679;51.436;-2.518;2023-01-24T15:22:32;4.30;99.90
48860;DHT22;34679;51.436;-2.518;2023-01-24T15:25:00;4.20;99.90
48860;DHT22;34679;51.436;-2.518;2023-01-24T15:35:20;4.30;99.90
48860;DHT22;34679;51.436;-2.518;2023-01-24T15:43:40;4.10;99.90
48860;DHT22;34679;51.436;-2.518;2023-01-24T15:49:33;4.00;99.90
48860;DHT22;34679;51.436;-2.518;2023-01-24T15:54:39;3.80;99.90
48860;DHT22;34679;51.436;-2.518;2023-01-24T15:59:42;3.70;99.90
48860;DHT22;34679;51.436;-2.518;2023-01-24T16:02:12;3.60;99.90
48860;DHT22;34679;51.436;-2.518;2023-01-24T16:04:38;3.60;99.90
48860;DHT22;34679;51.436;-2.518;2023-01-24T16:07:05;3.50;99.90
48860;DHT22;34679;51.436;-2.518;2023-01-24T16:09:31;3.40;99.90
48860;DHT22;34679;51.436;-2.518;2023-01-24T16:11:58;3.30;99.90
48860;DHT22;34679;51.436;-2.518;2023-01-24T16:14:24;3.30;99.90
48860;DHT22;34679;51.436;-2.518;2023-01-24T16:16:53;3.20;99.90
48860;DHT22;34679;51.436;-2.518;2023-01-24T16:19:21;3.10;99.90
48860;DHT22;34679;51.436;-2.518;2023-01-24T16:21:47;3.00;99.90
48860;DHT22;34679;51.436;-2.518;2023-01-24T16:24:14;3.00;99.90
48860;DHT22;34679;51.436;-2.518;2023-01-24T16:26:51;2.90;99.90
48860;DHT22;34679;51.436;-2.518;2023-01-24T16:29:22;2.80;99.90
48860;DHT22;34679;51.436;-2.518;2023-01-24T16:31:48;2.80;99.90
48860;DHT22;34679;51.436;-2.518;2023-01-24T16:34:14;2.70;99.90
48860;DHT22;34679;51.436;-2.518;2023-01-24T16:36:40;2.70;99.90
48860;DHT22;34679;51.436;-2.518;2023-01-24T16:39:06;2.70;99.90
48860;DHT22;34679;51.436;-2.518;2023-01-24T16:41:33;2.60;99.90
48860;DHT22;34679;51.436;-2.518;2023-01-24T16:43:59;2.50;99.90
48860;DHT22;34679;51.436;-2.518;2023-01-24T16:46:25;2.30;99.90
48860;DHT22;34679;51.436;-2.518;2023-01-24T16:48:50;2.20;99.90
48860;DHT22;34679;51.436;-2.518;2023-01-24T16:51:18;2.10;99.90
48860;DHT22;34679;51.436;-2.518;2023-01-24T16:53:44;2.00;99.90
48860;DHT22;34679;51.436;-2.518;2023-01-24T16:56:10;2.00;99.90
48860;DHT22;34679;51.436;-2.518;2023-01-24T16:58:36;1.90;99.90
48860;DHT22;34679;51.436;-2.518;2023-01-24T17:01:11;1.90;99.90
48860;DHT22;34679;51.436;-2.518;2023-01-24T17:03:37;1.80;99.90
48860;DHT22;34679;51.436;-2.518;2023-01-24T17:06:08;1.80;99.90
48860;DHT22;34679;51.436;-2.518;2023-01-24T17:08:34;1.80;99.90
48860;DHT22;34679;51.436;-2.518;2023-01-24T17:11:13;1.90;99.90
48860;DHT22;34679;51.436;-2.518;2023-01-24T17:13:41;1.80;99.90
48860;DHT22;34679;51.436;-2.518;2023-01-24T17:16:08;1.70;99.90
48860;DHT22;34679;51.436;-2.518;2023-01-24T17:18:35;1.60;99.90
48860;DHT22;34679;51.436;-2.518;2023-01-24T17:21:07;1.60;99.90
48860;DHT22;34679;51.436;-2.518;2023-01-24T17:23:34;1.50;99.90
48860;DHT22;34679;51.436;-2.518;2023-01-24T17:26:01;1.30;99.90
48860;DHT22;34679;51.436;-2.518;2023-01-24T17:28:27;1.20;99.90
48860;DHT22;34679;51.436;-2.518;2023-01-24T17:30:53;1.20;99.90
48860;DHT22;34679;51.436;-2.518;2023-01-24T17:33:19;1.20;99.90
48860;DHT22;34679;51.436;-2.518;2023-01-24T17:35:44;1.20;99.90
48860;DHT22;34679;51.436;-2.518;2023-01-24T17:38:10;1.20;99.90
48860;DHT22;34679;51.436;-2.518;2023-01-24T17:40:37;1.10;99.90
48860;DHT22;34679;51.436;-2.518;2023-01-24T17:43:03;1.00;99.90
48860;DHT22;34679;51.436;-2.518;2023-01-24T17:45:29;0.90;99.90
48860;DHT22;34679;51.436;-2.518;2023-01-24T17:47:56;1.00;99.90
48860;DHT22;34679;51.436;-2.518;2023-01-24T17:50:21;1.00;99.90
48860;DHT22;34679;51.436;-2.518;2023-01-24T17:52:48;1.00;99.90
48860;DHT22;34679;51.436;-2.518;2023-01-24T17:55:14;0.90;99.90
48860;DHT22;34679;51.436;-2.518;2023-01-24T17:57:42;0.90;99.90
48860;DHT22;34679;51.436;-2.518;2023-01-24T18:00:09;0.80;99.90
48860;DHT22;34679;51.436;-2.518;2023-01-24T18:02:34;0.70;99.90
48860;DHT22;34679;51.436;-2.518;2023-01-24T18:05:00;0.70;99.90
48860;DHT22;34679;51.436;-2.518;2023-01-24T18:07:26;0.60;99.90
48860;DHT22;34679;51.436;-2.518;2023-01-24T18:09:51;0.60;99.90
48860;DHT22;34679;51.436;-2.518;2023-01-24T18:12:17;0.50;99.90
48860;DHT22;34679;51.436;-2.518;2023-01-24T18:14:43;0.40;99.90
48860;DHT22;34679;51.436;-2.518;2023-01-24T18:17:09;0.40;99.90
48860;DHT22;34679;51.436;-2.518;2023-01-24T18:19:34;0.40;99.90
48860;DHT22;34679;51.436;-2.518;2023-01-24T18:22:01;0.30;99.90
48860;DHT22;34679;51.436;-2.518;2023-01-24T18:24:27;0.30;99.90
48860;DHT22;34679;51.436;-2.518;2023-01-24T18:26:52;0.20;99.90
48860;DHT22;34679;51.436;-2.518;2023-01-24T18:29:18;0.20;99.90